Time;durP1;ratioP1;P1;durP2;ratioP2;P2;SDS_P1;SDS_P2;PMS_P1;PMS_P2;Temp;Humidity;BMP_temperature;BMP_pressure;BME280_temperature;BME280_humidity;BME280_pressure;Samples;Min_cycle;Max_cycle;Signal;HPM_P1;HPM_P2
2023/03/16 00:01:40;;;;;;;31.33;15.48;;;;;;;5.15;89.85;99566.45;1706775;83;21463;-59
2023/03/16 00:04:10;;;;;;;30.92;15.38;;;;;;;5.16;89.86;99568.66;1706883;83;21066;-58
2023/03/16 00:06:39;;;;;;;29.50;15.43;;;;;;;5.17;89.90;99568.98;1707144;83;21063;-58
2023/03/16 00:09:09;;;;;;;28.12;15.18;;;;;;;5.19;90.00;99570.49;1707026;83;21094;-58
2023/03/16 00:11:38;;;;;;;26.85;14.03;;;;;;;5.20;90.04;99568.62;1707082;83;21102;-58
2023/03/16 00:14:07;;;;;;;26.62;14.05;;;;;;;5.22;90.07;99567.95;1707033;84;21066;-58
2023/03/16 00:16:38;;;;;;;28.95;14.38;;;;;;;5.23;90.08;99565.57;1707145;84;20995;-58
2023/03/16 00:19:15;;;;;;;26.70;14.53;;;;;;;5.23;90.05;99562.34;1706847;83;21051;-58
2023/03/16 00:21:45;;;;;;;27.95;15.28;;;;;;;5.25;89.99;99558.92;1707081;84;21004;-57
2023/03/16 00:24:17;;;;;;;26.62;14.28;;;;;;;5.26;89.95;99568.77;1706883;84;21055;-59
2023/03/16 00:26:46;;;;;;;26.23;14.85;;;;;;;5.26;90.00;99557.90;1706788;83;21478;-59
2023/03/16 00:29:18;;;;;;;27.48;14.03;;;;;;;5.29;90.01;99564.83;1707029;83;21047;-58
2023/03/16 00:31:46;;;;;;;24.90;14.05;;;;;;;5.26;89.96;99557.90;1706888;84;21043;-58
2023/03/16 00:34:16;;;;;;;26.12;14.10;;;;;;;5.25;89.91;99550.78;1706820;83;21027;-58
2023/03/16 00:36:48;;;;;;;26.23;14.23;;;;;;;5.25;89.87;99558.08;1707128;84;21539;-57
2023/03/16 00:39:21;;;;;;;25.45;14.18;;;;;;;5.23;89.89;99551.48;1707102;83;21094;-58
2023/03/16 00:41:51;;;;;;;26.23;14.25;;;;;;;5.24;89.93;99550.97;1706925;83;21075;-59
2023/03/16 00:44:23;;;;;;;29.72;14.28;;;;;;;5.20;89.90;99559.12;1706913;83;21537;-60
2023/03/16 00:46:53;;;;;;;29.27;14.05;;;;;;;5.21;90.04;99563.04;1706822;84;21042;-59
2023/03/16 00:49:24;;;;;;;29.40;14.20;;;;;;;5.23;90.15;99558.27;1706836;83;21110;-58
2023/03/16 00:51:53;;;;;;;24.25;13.38;;;;;;;5.25;90.27;99569.79;1707222;83;21039;-59
2023/03/16 00:54:21;;;;;;;24.37;12.30;;;;;;;5.27;90.35;99563.66;1707147;83;21078;-59
2023/03/16 00:56:53;;;;;;;23.50;12.28;;;;;;;5.28;90.47;99557.20;1706915;84;21635;-58
2023/03/16 00:59:25;;;;;;;25.50;11.50;;;;;;;5.31;90.54;99560.06;1707112;84;21027;-59
2023/03/16 01:01:54;;;;;;;21.82;11.53;;;;;;;5.35;90.65;99566.30;1706882;83;21011;-58
2023/03/16 01:04:28;;;;;;;24.75;11.40;;;;;;;5.41;90.66;99571.50;1707165;84;21528;-59
2023/03/16 01:06:58;;;;;;;23.45;11.83;;;;;;;5.46;90.50;99570.95;1709086;83;21043;-58
2023/03/16 01:09:27;;;;;;;23.67;11.45;;;;;;;5.48;90.45;99574.33;1710477;84;21007;-59
2023/03/16 01:11:57;;;;;;;21.73;11.88;;;;;;;5.51;90.50;99574.80;1711416;84;21023;-59
2023/03/16 01:14:27;;;;;;;20.27;10.78;;;;;;;5.54;90.43;99578.50;1710909;83;21039;-58
2023/03/16 01:16:55;;;;;;;20.60;10.30;;;;;;;5.56;90.33;99581.03;1709542;84;21046;-58
2023/03/16 01:19:25;;;;;;;18.57;9.25;;;;;;;5.58;90.30;99580.33;1706901;84;21455;-59
2023/03/16 01:21:55;;;;;;;16.32;9.18;;;;;;;5.62;90.28;99586.56;1707046;83;21060;-59
2023/03/16 01:24:24;;;;;;;21.40;9.60;;;;;;;5.66;90.30;99581.09;1707040;83;21075;-58
2023/03/16 01:26:53;;;;;;;17.00;9.35;;;;;;;5.69;90.31;99579.88;1706868;83;21458;-59
2023/03/16 01:29:22;;;;;;;16.35;9.55;;;;;;;5.74;90.31;99592.39;1707168;84;21031;-57
2023/03/16 01:31:54;;;;;;;18.17;9.30;;;;;;;5.77;90.22;99587.09;1707056;84;21071;-58
2023/03/16 01:34:23;;;;;;;19.52;9.68;;;;;;;5.82;90.08;99588.73;1707216;84;21078;-59
2023/03/16 01:36:52;;;;;;;19.57;10.60;;;;;;;5.87;89.91;99591.77;1706806;84;21082;-57
2023/03/16 01:39:30;;;;;;;18.35;10.65;;;;;;;5.90;89.75;99592.78;1667741;83;21051;-59
2023/03/16 01:41:59;;;;;;;20.23;10.05;;;;;;;5.91;89.58;99593.95;1707111;83;21009;-59
2023/03/16 01:44:33;;;;;;;22.20;11.18;;;;;;;5.92;89.46;99592.92;1706846;84;21495;-60
2023/03/16 01:47:03;;;;;;;18.70;9.55;;;;;;;5.94;89.33;99589.50;1706938;84;21483;-58
2023/03/16 01:49:36;;;;;;;18.27;9.30;;;;;;;5.93;89.16;99595.13;1706846;84;21011;-59
2023/03/16 01:52:26;;;;;;;16.82;9.65;;;;;;;5.94;89.05;99592.73;1706793;84;21479;-60
2023/03/16 01:55:07;;;;;;;21.85;11.48;;;;;;;5.92;88.88;99597.00;1707027;84;21062;-59
2023/03/16 01:57:41;;;;;;;20.43;9.90;;;;;;;5.94;88.92;99601.73;1706848;84;21007;-57
2023/03/16 02:00:18;;;;;;;17.17;9.88;;;;;;;5.95;88.73;99606.14;1706903;83;21039;-60
2023/03/16 02:03:15;;;;;;;19.80;9.65;;;;;;;5.97;88.61;99605.95;1706394;84;21487;-58
2023/03/16 02:06:11;;;;;;;22.25;10.00;;;;;;;5.99;88.47;99612.05;1688176;84;21514;-58
2023/03/16 02:08:44;;;;;;;23.32;10.23;;;;;;;6.00;88.38;99620.02;1706903;84;21467;-58
2023/03/16 02:11:16;;;;;;;19.80;10.25;;;;;;;6.02;88.22;99613.03;1707240;84;21086;-58
2023/03/16 02:13:46;;;;;;;18.92;10.10;;;;;;;6.00;88.24;99613.73;1706431;84;21051;-58
2023/03/16 02:16:18;;;;;;;18.85;9.50;;;;;;;6.00;88.21;99611.86;1706784;83;21027;-57
2023/03/16 02:18:47;;;;;;;16.35;9.40;;;;;;;5.99;88.06;99607.45;1706965;84;21503;-58
2023/03/16 02:21:43;;;;;;;20.62;9.60;;;;;;;5.97;88.01;99609.52;1706952;84;21474;-58
2023/03/16 02:24:12;;;;;;;17.73;10.32;;;;;;;5.97;87.93;99619.55;1706704;84;21120;-58
2023/03/16 02:27:04;;;;;;;19.67;11.12;;;;;;;5.95;87.86;99618.89;1707091;84;21067;-58
2023/03/16 02:30:04;;;;;;;20.55;11.15;;;;;;;5.93;87.98;99630.47;1707015;84;21113;-59
2023/03/16 02:32:36;;;;;;;21.60;11.33;;;;;;;5.90;88.03;99634.41;1706370;84;21035;-58
2023/03/16 02:35:07;;;;;;;20.20;11.20;;;;;;;5.88;88.06;99637.80;1706993;83;21111;-58
2023/03/16 02:37:38;;;;;;;21.73;10.95;;;;;;;5.87;88.11;99634.75;1706663;84;21028;-60
2023/03/16 02:40:31;;;;;;;19.65;10.25;;;;;;;5.86;88.11;99630.86;1706876;83;21003;-59
2023/03/16 02:43:18;;;;;;;23.70;10.50;;;;;;;5.86;88.17;99637.14;1706848;84;21042;-58
2023/03/16 02:45:57;;;;;;;21.20;10.93;;;;;;;5.84;88.35;99630.17;1706448;83;21051;-57
2023/03/16 02:48:39;;;;;;;22.40;10.98;;;;;;;5.81;88.53;99620.51;1706748;83;21039;-58
2023/03/16 02:51:09;;;;;;;18.23;9.78;;;;;;;5.82;88.65;99618.13;1706839;84;21451;-59
2023/03/16 02:53:38;;;;;;;24.37;10.88;;;;;;;5.82;88.62;99618.13;1706707;83;21087;-59
2023/03/16 02:56:11;;;;;;;20.90;10.78;;;;;;;5.82;88.53;99599.61;1706550;84;21085;-59
2023/03/16 02:58:42;;;;;;;21.02;11.33;;;;;;;5.83;88.51;99602.14;1706882;83;21019;-58
2023/03/16 03:01:13;;;;;;;20.32;10.60;;;;;;;5.83;88.51;99606.22;1706973;84;21098;-58
2023/03/16 03:03:43;;;;;;;20.32;10.40;;;;;;;5.85;88.52;99612.83;1706746;84;21031;-58
2023/03/16 03:06:14;;;;;;;22.25;12.05;;;;;;;5.88;88.35;99617.41;1706831;83;21106;-58
2023/03/16 03:08:42;;;;;;;19.62;10.70;;;;;;;5.87;88.11;99609.44;1706857;83;21158;-58
2023/03/16 03:11:12;;;;;;;23.55;12.15;;;;;;;5.89;88.04;99610.97;1706859;84;21479;-59
2023/03/16 03:13:43;;;;;;;23.30;12.90;;;;;;;5.89;87.89;99613.69;1706972;84;21450;-58
2023/03/16 03:16:15;;;;;;;29.07;13.48;;;;;;;5.91;87.84;99611.63;1706669;84;21463;-59
2023/03/16 03:18:44;;;;;;;28.40;14.00;;;;;;;5.89;87.74;99613.69;1706704;83;21027;-59
2023/03/16 03:21:15;;;;;;;30.05;14.10;;;;;;;5.89;87.70;99617.77;1686935;83;21122;-58
2023/03/16 03:23:45;;;;;;;25.30;12.90;;;;;;;5.87;87.57;99621.16;1707247;84;21088;-57
2023/03/16 03:26:14;;;;;;;29.23;13.90;;;;;;;5.83;87.47;99625.25;1707105;83;21082;-58
2023/03/16 03:28:45;;;;;;;28.02;14.10;;;;;;;5.81;87.60;99630.54;1706598;84;21067;-57
2023/03/16 03:31:16;;;;;;;27.17;14.40;;;;;;;5.78;87.72;99632.27;1706819;83;21090;-58
2023/03/16 03:33:45;;;;;;;28.10;15.28;;;;;;;5.78;87.80;99640.42;1706923;84;21102;-58
2023/03/16 03:36:15;;;;;;;29.55;14.68;;;;;;;5.75;87.89;99628.05;1707064;84;20999;-60
2023/03/16 03:38:45;;;;;;;26.80;13.85;;;;;;;5.76;88.02;99629.73;1706989;84;21047;-61
2023/03/16 03:41:16;;;;;;;32.00;15.75;;;;;;;5.79;88.12;99621.21;1706682;84;21447;-58
2023/03/16 03:43:45;;;;;;;27.77;14.30;;;;;;;5.81;88.17;99621.88;1706829;83;21043;-58
2023/03/16 03:46:17;;;;;;;35.48;16.42;;;;;;;5.81;88.23;99629.18;1706858;84;21457;-58
2023/03/16 03:48:46;;;;;;;29.75;16.17;;;;;;;5.79;88.32;99629.36;1707072;84;21011;-59
2023/03/16 03:51:16;;;;;;;33.25;16.37;;;;;;;5.77;88.40;99628.70;1706753;84;21031;-60
2023/03/16 03:54:07;;;;;;;31.85;14.33;;;;;;;5.76;88.58;99632.45;1706735;83;21035;-59
2023/03/16 03:56:53;;;;;;;27.65;14.90;;;;;;;5.74;88.59;99638.08;1706215;83;21047;-59
2023/03/16 03:59:22;;;;;;;26.15;14.30;;;;;;;5.69;88.74;99639.14;1686619;84;21090;-59
2023/03/16 04:02:12;;;;;;;32.00;16.35;;;;;;;5.68;88.86;99648.84;1705767;84;21475;-58
2023/03/16 04:04:45;;;;;;;28.73;14.78;;;;;;;5.68;89.09;99649.69;1706870;84;21442;-59
2023/03/16 04:07:14;;;;;;;30.62;15.60;;;;;;;5.65;89.18;99650.06;1706933;84;21094;-59
2023/03/16 04:09:44;;;;;;;31.75;15.75;;;;;;;5.63;89.32;99653.47;1706811;84;21493;-59
2023/03/16 04:12:17;;;;;;;28.55;15.45;;;;;;;5.65;89.47;99648.70;1706247;84;21055;-57
2023/03/16 04:14:48;;;;;;;30.72;16.45;;;;;;;5.64;89.59;99651.09;1706990;84;21074;-59
2023/03/16 04:17:19;;;;;;;30.97;15.40;;;;;;;5.63;89.64;99647.20;1706608;84;21502;-58
2023/03/16 04:19:47;;;;;;;31.42;16.32;;;;;;;5.60;89.84;99653.00;1707108;84;21160;-58
2023/03/16 04:22:18;;;;;;;32.85;16.32;;;;;;;5.60;89.99;99653.00;1707123;83;21043;-58
2023/03/16 04:24:48;;;;;;;28.55;14.63;;;;;;;5.57;90.07;99653.36;1706774;83;21509;-58
2023/03/16 04:27:17;;;;;;;33.55;15.95;;;;;;;5.57;90.21;99656.08;1706772;83;21042;-60
2023/03/16 04:29:47;;;;;;;34.50;16.10;;;;;;;5.55;90.19;99654.91;1706725;83;21051;-60
2023/03/16 04:32:16;;;;;;;30.88;15.78;;;;;;;5.54;90.32;99657.30;1707159;83;21039;-58
2023/03/16 04:34:47;;;;;;;30.48;16.23;;;;;;;5.51;90.41;99659.02;1707128;84;21055;-59
2023/03/16 04:37:16;;;;;;;29.50;15.23;;;;;;;5.50;90.50;99661.41;1706981;84;21070;-59
2023/03/16 04:39:46;;;;;;;29.23;14.87;;;;;;;5.48;90.58;99663.98;1706978;83;21004;-59
2023/03/16 04:42:17;;;;;;;27.67;14.15;;;;;;;5.48;90.61;99668.05;1706777;84;21074;-59
2023/03/16 04:44:46;;;;;;;26.37;13.48;;;;;;;5.51;90.66;99671.25;1706915;83;21082;-59
2023/03/16 04:47:16;;;;;;;27.15;15.13;;;;;;;5.53;90.63;99665.63;1707186;83;21034;-61
2023/03/16 04:49:46;;;;;;;25.97;13.78;;;;;;;5.51;90.64;99678.55;1687799;84;21032;-58
2023/03/16 04:52:17;;;;;;;25.08;15.03;;;;;;;5.51;90.68;99674.48;1709954;84;21086;-59
2023/03/16 04:54:46;;;;;;;25.72;13.53;;;;;;;5.52;90.69;99677.02;1709817;84;21070;-59
2023/03/16 04:57:18;;;;;;;29.82;15.35;;;;;;;5.55;90.63;99680.72;1709294;84;21023;-60
2023/03/16 04:59:48;;;;;;;29.95;15.55;;;;;;;5.55;90.53;99690.23;1708940;83;21451;-58
2023/03/16 05:02:19;;;;;;;34.92;17.10;;;;;;;5.52;90.48;99686.52;1705941;84;21050;-60
2023/03/16 05:04:51;;;;;;;35.58;17.37;;;;;;;5.50;90.56;99691.81;1707269;84;21063;-58
2023/03/16 05:07:23;;;;;;;37.93;17.40;;;;;;;5.48;90.76;99695.22;1706639;83;21560;-61
2023/03/16 05:09:55;;;;;;;37.15;17.70;;;;;;;5.48;90.93;99706.09;1707060;84;21035;-58
2023/03/16 05:12:24;;;;;;;35.05;17.02;;;;;;;5.45;90.86;99701.86;1707102;84;21510;-59
2023/03/16 05:14:56;;;;;;;36.65;17.85;;;;;;;5.46;90.79;99704.91;1706827;84;21503;-59
2023/03/16 05:17:29;;;;;;;36.98;17.62;;;;;;;5.44;90.60;99711.55;1705796;84;21003;-59
2023/03/16 05:19:58;;;;;;;37.42;16.97;;;;;;;5.37;90.57;99713.64;1707177;83;21074;-59
2023/03/16 05:22:29;;;;;;;37.80;16.93;;;;;;;5.31;90.49;99719.80;1706753;84;21516;-58
2023/03/16 05:25:02;;;;;;;37.45;16.97;;;;;;;5.22;90.21;99720.88;1701148;84;21579;-59
2023/03/16 05:27:33;;;;;;;37.63;14.95;;;;;;;5.14;90.07;99718.19;1706778;83;21118;-58
2023/03/16 05:30:04;;;;;;;33.78;16.20;;;;;;;5.09;89.98;99730.09;1686595;84;21454;-58
2023/03/16 05:32:34;;;;;;;40.00;16.10;;;;;;;4.99;89.86;99741.18;1707003;84;21035;-58
2023/03/16 05:35:12;;;;;;;38.73;15.28;;;;;;;4.95;90.03;99749.86;1706874;83;21493;-61
2023/03/16 05:37:41;;;;;;;37.10;16.23;;;;;;;4.89;90.02;99754.64;1706737;84;21517;-59
2023/03/16 05:40:17;;;;;;;35.65;15.72;;;;;;;4.82;90.17;99757.21;1706773;84;21055;-59
2023/03/16 05:42:52;;;;;;;34.88;15.30;;;;;;;4.78;90.32;99768.93;1706241;84;21106;-60
2023/03/16 05:45:21;;;;;;;38.30;15.80;;;;;;;4.76;90.50;99772.84;1687466;84;21185;-59
2023/03/16 05:47:52;;;;;;;37.17;15.58;;;;;;;4.72;90.73;99776.93;1704424;84;21039;-60
2023/03/16 05:50:23;;;;;;;39.70;16.12;;;;;;;4.70;90.92;99783.05;1706942;83;21031;-59
2023/03/16 05:52:54;;;;;;;39.27;16.50;;;;;;;4.67;91.12;99776.09;1706838;83;21478;-58
2023/03/16 05:55:24;;;;;;;38.83;15.63;;;;;;;4.66;91.29;99775.77;1706730;84;21034;-59
2023/03/16 05:57:57;;;;;;;40.80;15.93;;;;;;;4.67;91.44;99765.25;1706756;83;21125;-58
2023/03/16 06:00:28;;;;;;;44.13;17.07;;;;;;;4.69;91.47;99772.70;1706794;83;21455;-60
2023/03/16 06:03:00;;;;;;;37.50;16.12;;;;;;;4.69;91.53;99770.50;1706022;84;21459;-58
2023/03/16 06:05:31;;;;;;;41.30;16.93;;;;;;;4.65;91.52;99771.87;1706764;84;21078;-59
2023/03/16 06:08:00;;;;;;;38.92;15.20;;;;;;;4.63;91.73;99776.62;1706819;83;21535;-59
2023/03/16 06:10:32;;;;;;;36.68;15.43;;;;;;;4.64;91.87;99773.73;1706855;84;21094;-59
2023/03/16 06:13:01;;;;;;;37.38;14.38;;;;;;;4.68;91.95;99781.86;1706914;83;21067;-59
2023/03/16 06:15:32;;;;;;;35.65;14.35;;;;;;;4.70;91.97;99781.69;1706945;83;21233;-58
2023/03/16 06:18:04;;;;;;;38.13;15.53;;;;;;;4.69;92.02;99781.35;1706707;83;21022;-60
2023/03/16 06:20:35;;;;;;;39.08;14.98;;;;;;;4.67;92.14;99786.11;1706725;83;21046;-60
2023/03/16 06:23:04;;;;;;;32.88;14.35;;;;;;;4.66;92.28;99784.41;1706848;83;21027;-61
2023/03/16 06:25:34;;;;;;;38.08;14.50;;;;;;;4.67;92.40;99794.25;1706402;84;21117;-58
2023/03/16 06:28:05;;;;;;;35.25;13.38;;;;;;;4.69;92.52;99797.13;1706816;84;21039;-60
2023/03/16 06:30:35;;;;;;;36.58;13.60;;;;;;;4.69;92.48;99794.41;1706722;83;21039;-59
2023/03/16 06:33:04;;;;;;;37.35;14.58;;;;;;;4.66;92.53;99800.19;1706613;83;21074;-60
2023/03/16 06:35:34;;;;;;;29.85;13.03;;;;;;;4.67;92.70;99798.31;1706582;84;21162;-59
2023/03/16 06:38:06;;;;;;;31.82;13.58;;;;;;;4.68;92.71;99796.78;1705151;84;21012;-59
2023/03/16 06:40:42;;;;;;;36.90;14.07;;;;;;;4.70;92.74;99807.47;1705911;83;21455;-60
2023/03/16 06:43:15;;;;;;;34.90;12.93;;;;;;;4.70;92.82;99803.39;1706991;83;21741;-60
2023/03/16 06:45:45;;;;;;;32.40;12.70;;;;;;;4.69;92.79;99809.33;1707034;83;21038;-60
2023/03/16 06:48:15;;;;;;;34.08;12.78;;;;;;;4.69;92.81;99816.63;1706602;83;21039;-59
2023/03/16 06:50:47;;;;;;;28.50;11.85;;;;;;;4.69;92.85;99817.47;1706865;83;21070;-59
2023/03/16 06:53:17;;;;;;;26.02;11.12;;;;;;;4.66;92.71;99824.61;1706205;84;21039;-61
2023/03/16 06:55:47;;;;;;;26.60;11.30;;;;;;;4.60;92.66;99819.88;1706495;84;21459;-57
2023/03/16 06:58:17;;;;;;;28.23;11.05;;;;;;;4.57;92.69;99820.73;1707049;84;21038;-61
2023/03/16 07:00:47;;;;;;;26.07;10.88;;;;;;;4.53;92.66;99822.91;1706992;83;21066;-58
2023/03/16 07:03:17;;;;;;;27.30;11.53;;;;;;;4.52;92.58;99827.16;1706994;84;21458;-61
2023/03/16 07:05:47;;;;;;;30.17;11.97;;;;;;;4.47;92.54;99833.09;1706783;84;21435;-63
2023/03/16 07:08:17;;;;;;;26.87;11.55;;;;;;;4.48;92.72;99829.88;1706999;84;21051;-61
2023/03/16 07:10:49;;;;;;;29.42;11.55;;;;;;;4.46;92.65;99835.47;1707061;84;21114;-61
2023/03/16 07:13:18;;;;;;;32.15;11.28;;;;;;;4.43;92.72;99831.75;1687014;84;21106;-61
2023/03/16 07:15:51;;;;;;;29.18;11.55;;;;;;;4.43;92.67;99833.10;1707133;84;21023;-59
2023/03/16 07:18:21;;;;;;;30.20;12.03;;;;;;;4.40;92.57;99831.58;1706919;84;21055;-60
2023/03/16 07:20:54;;;;;;;29.48;12.33;;;;;;;4.41;92.67;99838.70;1707117;83;21082;-61
2023/03/16 07:23:25;;;;;;;30.02;11.93;;;;;;;4.42;92.74;99834.13;1686590;84;21087;-61
2023/03/16 07:25:55;;;;;;;30.27;12.13;;;;;;;4.44;92.78;99844.29;1706604;84;21471;-59
2023/03/16 07:28:26;;;;;;;29.90;12.53;;;;;;;4.44;92.81;99848.36;1713465;83;21078;-60
2023/03/16 07:30:57;;;;;;;29.35;11.48;;;;;;;4.47;92.85;99849.37;1716643;83;21039;-59
2023/03/16 07:33:29;;;;;;;25.30;10.98;;;;;;;4.50;92.68;99853.09;1716626;83;21027;-60
2023/03/16 07:36:03;;;;;;;25.48;12.10;;;;;;;4.53;92.58;99854.11;1716183;83;21504;-61
2023/03/16 07:38:32;;;;;;;29.40;12.50;;;;;;;4.56;92.49;99860.58;1716624;83;21093;-60
2023/03/16 07:41:02;;;;;;;28.50;12.25;;;;;;;4.60;92.38;99864.64;1655505;85;21124;-60
2023/03/16 07:43:33;;;;;;;31.95;13.00;;;;;;;4.64;92.32;99857.84;1654089;87;21627;-61
2023/03/16 07:46:03;;;;;;;30.02;11.48;;;;;;;4.68;92.13;99867.34;1654355;87;21046;-60
2023/03/16 07:48:34;;;;;;;29.20;12.63;;;;;;;4.72;91.84;99870.04;1654637;87;21090;-61
2023/03/16 07:51:05;;;;;;;30.10;13.20;;;;;;;4.72;91.63;99870.55;1654791;86;21050;-60
2023/03/16 07:53:34;;;;;;;27.30;12.25;;;;;;;4.72;91.57;99862.41;1654852;87;21097;-60
2023/03/16 07:56:07;;;;;;;30.45;13.35;;;;;;;4.74;91.43;99865.28;1654807;87;21117;-60
2023/03/16 07:58:38;;;;;;;29.60;12.75;;;;;;;4.75;91.25;99871.05;1655028;86;21027;-60
2023/03/16 08:01:09;;;;;;;31.57;12.03;;;;;;;4.76;91.08;99872.75;1654943;87;21050;-59
2023/03/16 08:03:39;;;;;;;28.38;12.25;;;;;;;4.78;91.01;99873.42;1654627;87;21090;-60
2023/03/16 08:06:10;;;;;;;29.02;13.18;;;;;;;4.82;90.78;99875.27;1698167;83;21067;-59
2023/03/16 08:08:41;;;;;;;30.00;13.40;;;;;;;4.83;90.62;99880.19;1716685;83;21131;-60
2023/03/16 08:11:12;;;;;;;28.83;13.38;;;;;;;4.84;90.58;99880.02;1716904;83;21071;-60
2023/03/16 08:13:55;;;;;;;30.15;13.28;;;;;;;4.87;90.48;99875.59;1716736;83;21050;-59
2023/03/16 08:16:26;;;;;;;32.05;13.70;;;;;;;4.89;90.33;99876.78;1716909;83;21074;-60
2023/03/16 08:18:56;;;;;;;30.43;12.75;;;;;;;4.90;90.17;99874.41;1716903;83;21027;-62
2023/03/16 08:21:29;;;;;;;29.87;14.00;;;;;;;4.91;89.97;99871.52;1688834;83;21093;-61
2023/03/16 08:23:58;;;;;;;31.85;14.90;;;;;;;4.92;89.88;99880.50;1716607;83;21015;-60
2023/03/16 08:26:30;;;;;;;33.33;14.33;;;;;;;4.93;89.88;99880.33;1716935;83;21062;-60
2023/03/16 08:29:02;;;;;;;33.90;14.70;;;;;;;4.95;89.76;99881.52;1691252;84;21634;-58
2023/03/16 08:31:33;;;;;;;27.75;13.03;;;;;;;4.97;89.72;99880.83;1706964;84;21467;-60
2023/03/16 08:34:05;;;;;;;29.42;13.95;;;;;;;5.00;89.65;99884.55;1708056;84;21027;-60
2023/03/16 08:36:37;;;;;;;30.40;14.20;;;;;;;5.04;89.57;99881.83;1709640;84;21000;-59
2023/03/16 08:39:07;;;;;;;34.88;14.13;;;;;;;5.06;89.44;99866.20;1709462;84;21043;-60
2023/03/16 08:41:39;;;;;;;30.97;14.55;;;;;;;5.10;89.43;99877.90;1708904;84;21051;-59
2023/03/16 08:44:11;;;;;;;32.48;14.18;;;;;;;5.13;89.34;99875.34;1709050;84;21083;-59
2023/03/16 08:46:41;;;;;;;31.97;13.48;;;;;;;5.13;89.14;99878.05;1707670;83;21047;-60
2023/03/16 08:49:12;;;;;;;31.35;14.03;;;;;;;5.13;89.05;99884.84;1707290;83;21432;-60
2023/03/16 08:51:43;;;;;;;30.40;14.93;;;;;;;5.15;89.10;99881.44;1708038;82;21474;-60
2023/03/16 08:54:14;;;;;;;33.20;13.83;;;;;;;5.22;89.18;99897.41;1742216;80;21008;-59
2023/03/16 08:56:43;;;;;;;33.55;15.15;;;;;;;5.25;88.94;99901.63;1749169;81;21078;-58
2023/03/16 08:59:12;;;;;;;32.28;14.10;;;;;;;5.24;88.89;99902.66;1748793;81;21483;-60
2023/03/16 09:01:43;;;;;;;32.30;14.05;;;;;;;5.27;88.93;99903.66;1708733;84;20993;-59
2023/03/16 09:04:13;;;;;;;32.78;14.90;;;;;;;5.30;88.91;99916.38;1746557;82;21475;-60
2023/03/16 09:06:44;;;;;;;30.65;13.28;;;;;;;5.40;89.66;99918.38;1746681;82;21602;-61
2023/03/16 09:09:15;;;;;;;34.27;13.48;;;;;;;5.50;89.42;99918.67;1746775;82;21075;-60
2023/03/16 09:11:46;;;;;;;34.65;14.20;;;;;;;5.55;89.22;99921.20;1759045;81;21012;-61
2023/03/16 09:14:15;;;;;;;35.15;13.80;;;;;;;5.54;88.72;99926.80;1746301;82;21042;-60
2023/03/16 09:16:47;;;;;;;33.05;14.40;;;;;;;5.55;88.69;99923.91;1746296;82;21482;-61
2023/03/16 09:19:15;;;;;;;32.42;14.07;;;;;;;5.59;88.50;99928.48;1746527;82;21003;-60
2023/03/16 09:21:45;;;;;;;31.10;13.03;;;;;;;5.59;88.25;99926.61;1746409;82;21076;-61
2023/03/16 09:24:15;;;;;;;30.50;13.65;;;;;;;5.61;88.03;99926.43;1746463;82;21042;-61
2023/03/16 09:26:45;;;;;;;33.95;14.33;;;;;;;5.61;87.95;99926.43;1746583;82;21015;-62
2023/03/16 09:29:15;;;;;;;31.40;14.35;;;;;;;5.61;87.79;99935.44;1746555;82;21051;-60
2023/03/16 09:31:45;;;;;;;30.08;13.62;;;;;;;5.62;87.97;99926.77;1746378;82;21027;-63
2023/03/16 09:34:14;;;;;;;33.10;13.58;;;;;;;5.63;87.83;99925.74;1746764;82;21011;-61
2023/03/16 09:36:44;;;;;;;30.88;13.58;;;;;;;5.62;87.64;99926.25;1746417;82;21107;-62
2023/03/16 09:39:14;;;;;;;32.33;13.68;;;;;;;5.64;87.59;99932.87;1746433;82;21050;-61
2023/03/16 09:42:14;;;;;;;34.92;14.43;;;;;;;5.62;87.43;99930.84;1746723;82;21007;-60
2023/03/16 09:45:15;;;;;;;37.23;15.10;;;;;;;5.62;87.52;99939.84;1746737;82;21014;-60
2023/03/16 09:47:45;;;;;;;29.72;14.75;;;;;;;5.63;87.48;99936.61;1746553;82;21018;-59
2023/03/16 09:50:22;;;;;;;34.85;13.00;;;;;;;5.64;87.49;99941.02;1746397;82;21082;-59
2023/03/16 09:53:23;;;;;;;34.30;13.98;;;;;;;5.67;87.46;99934.72;1752403;80;21070;-62
2023/03/16 09:55:56;;;;;;;30.23;14.07;;;;;;;5.65;87.23;99927.26;1782658;80;21104;-61
2023/03/16 09:58:26;;;;;;;27.32;12.18;;;;;;;5.66;87.25;99925.39;1782892;80;20995;-61
2023/03/16 10:01:21;;;;;;;33.60;13.32;;;;;;;5.66;87.31;99937.11;1781446;80;21018;-61
2023/03/16 10:04:44;;;;;;;36.30;14.23;;;;;;;5.69;87.33;99932.67;1761883;81;21063;-61
2023/03/16 10:07:51;;;;;;;27.60;12.07;;;;;;;5.71;87.34;99931.98;1761984;80;21000;-62
2023/03/16 10:10:39;;;;;;;27.85;12.18;;;;;;;5.75;87.13;99925.67;1762111;81;21440;-63
2023/03/16 10:13:35;;;;;;;29.57;13.32;;;;;;;5.77;86.93;99932.30;1762122;81;21447;-62
2023/03/16 10:16:14;;;;;;;26.60;12.65;;;;;;;5.76;86.81;99928.73;1762014;81;20988;-61
2023/03/16 10:18:47;;;;;;;29.00;12.98;;;;;;;5.77;86.71;99935.02;1766014;81;21075;-61
2023/03/16 10:21:18;;;;;;;29.70;13.55;;;;;;;5.75;86.70;99929.76;1761909;81;21114;-62
2023/03/16 10:23:48;;;;;;;32.00;12.43;;;;;;;5.78;86.79;99921.75;1762066;81;20972;-62
2023/03/16 10:26:28;;;;;;;30.20;13.78;;;;;;;5.81;86.59;99937.20;1762301;81;21055;-60
2023/03/16 10:28:59;;;;;;;31.80;13.13;;;;;;;5.81;86.28;99937.71;1761804;81;21098;-61
2023/03/16 10:31:37;;;;;;;27.85;13.20;;;;;;;5.77;86.33;99939.94;1761900;80;21032;-61
2023/03/16 10:34:10;;;;;;;29.57;13.08;;;;;;;5.75;86.29;99936.55;1761896;81;21031;-61
2023/03/16 10:36:41;;;;;;;31.82;12.82;;;;;;;5.78;86.47;99939.42;1761878;81;21075;-60
2023/03/16 10:39:15;;;;;;;28.15;12.40;;;;;;;5.81;86.41;99945.86;1762337;81;21015;-60
2023/03/16 10:41:49;;;;;;;30.48;12.65;;;;;;;5.83;86.25;99943.81;1762395;81;21016;-61
2023/03/16 10:44:28;;;;;;;33.00;13.53;;;;;;;5.86;86.26;99948.92;1743146;81;21043;-60
2023/03/16 10:47:04;;;;;;;28.62;12.15;;;;;;;5.90;86.25;99953.02;1761813;81;21075;-60
2023/03/16 10:49:45;;;;;;;32.28;13.45;;;;;;;5.90;86.06;99953.86;1761966;81;21074;-59
2023/03/16 10:52:23;;;;;;;29.50;11.50;;;;;;;5.89;85.87;99957.61;1762040;80;21039;-62
2023/03/16 10:54:59;;;;;;;39.03;10.88;;;;;;;5.90;86.10;99960.66;1762055;81;21131;-63
2023/03/16 10:57:33;;;;;;;35.52;12.20;;;;;;;5.91;86.10;99963.71;1744881;82;21464;-60
2023/03/16 11:00:23;;;;;;;24.57;12.10;;;;;;;5.91;86.05;99963.71;1746324;82;21043;-60
2023/03/16 11:02:55;;;;;;;32.58;11.80;;;;;;;5.90;85.98;99957.94;1750785;81;21053;-61
2023/03/16 11:05:30;;;;;;;24.20;10.88;;;;;;;5.89;85.95;99954.89;1751437;82;21023;-60
2023/03/16 11:08:09;;;;;;;24.12;10.50;;;;;;;5.88;85.87;99956.39;1751723;82;21045;-60
2023/03/16 11:10:46;;;;;;;28.62;10.88;;;;;;;5.86;85.82;99957.93;1692469;85;21530;-60
2023/03/16 11:13:18;;;;;;;;;;;;;;;5.85;85.77;99958.08;1694485;85;21064;-60
2023/03/16 11:16:34;;;;;;;25.97;10.80;;;;;;;5.86;85.84;99955.21;1692878;85;20245;-61
2023/03/16 11:19:26;;;;;;;26.60;11.03;;;;;;;5.87;86.42;99956.06;1692799;85;21486;-61
2023/03/16 11:22:08;;;;;;;28.75;12.35;;;;;;;5.85;86.12;99952.64;1692904;85;21079;-60
2023/03/16 11:24:44;;;;;;;32.95;11.73;;;;;;;5.81;85.93;99956.23;1690726;85;21482;-60
2023/03/16 11:27:27;;;;;;;26.90;10.55;;;;;;;5.82;85.97;99952.48;1693154;85;21062;-59
2023/03/16 11:30:16;;;;;;;27.22;11.12;;;;;;;5.83;85.88;99950.10;1754962;80;21062;-60
2023/03/16 11:32:49;;;;;;;23.38;10.80;;;;;;;5.83;85.62;99956.05;1759226;81;21050;-59
2023/03/16 11:35:36;;;;;;;42.33;13.20;;;;;;;5.82;85.69;99959.28;1759189;81;21536;-61
2023/03/16 11:38:20;;;;;;;25.82;11.03;;;;;;;5.83;85.68;99966.41;1722066;83;21579;-60
2023/03/16 11:41:02;;;;;;;25.48;10.10;;;;;;;5.87;85.53;99975.09;1716070;83;21058;-61
2023/03/16 11:43:55;;;;;;;31.30;11.83;;;;;;;5.87;85.40;99977.30;1692558;85;21038;-61
2023/03/16 11:46:35;;;;;;;27.90;10.45;;;;;;;5.89;85.21;99971.68;1715710;83;21035;-62
2023/03/16 11:49:48;;;;;;;31.93;11.00;;;;;;;5.93;85.23;99975.77;1692910;85;21078;-60
2023/03/16 11:52:56;;;;;;;24.87;10.25;;;;;;;5.96;85.09;99991.73;1725882;83;21016;-62
2023/03/16 11:56:00;;;;;;;28.77;11.57;;;;;;;5.95;84.95;99987.31;1718554;83;21050;-62
2023/03/16 11:59:06;;;;;;;30.15;11.95;;;;;;;5.92;84.83;99992.59;1717971;83;21075;-61